sensor_id;sensor_type;location;lat;lon;timestamp;pressure;altitude;pressure_sealevel;temperature;humidity
60817;BME280;51921;51.518;-3.188;2023-04-26T00:00:52;101469.27;;;4.67;61.28
60817;BME280;51921;51.518;-3.188;2023-04-26T00:03:18;101473.43;;;4.56;61.46
60817;BME280;51921;51.518;-3.188;2023-04-26T00:05:43;101467.66;;;3.83;64.25
60817;BME280;51921;51.518;-3.188;2023-04-26T00:08:09;101468.70;;;3.56;67.31
60817;BME280;51921;51.518;-3.188;2023-04-26T00:10:34;101470.23;;;4.02;68.78
60817;BME280;51921;51.518;-3.188;2023-04-26T00:13:00;101476.18;;;4.20;66.72
60817;BME280;51921;51.518;-3.188;2023-04-26T00:15:25;101480.24;;;2.97;71.40
60817;BME280;51921;51.518;-3.188;2023-04-26T00:17:51;101476.15;;;3.14;72.74
60817;BME280;51921;51.518;-3.188;2023-04-26T00:20:17;101470.43;;;3.10;75.27
60817;BME280;51921;51.518;-3.188;2023-04-26T00:22:42;101464.28;;;2.78;77.43
60817;BME280;51921;51.518;-3.188;2023-04-26T00:25:09;101457.78;;;2.99;78.39
60817;BME280;51921;51.518;-3.188;2023-04-26T00:27:33;101453.65;;;3.53;74.99
60817;BME280;51921;51.518;-3.188;2023-04-26T00:29:59;101454.91;;;3.17;77.68
60817;BME280;51921;51.518;-3.188;2023-04-26T00:32:25;101452.18;;;3.15;78.81
60817;BME280;51921;51.518;-3.188;2023-04-26T00:34:50;101455.66;;;3.01;78.35
60817;BME280;51921;51.518;-3.188;2023-04-26T00:37:16;101452.61;;;3.53;77.14
60817;BME280;51921;51.518;-3.188;2023-04-26T00:39:41;101451.50;;;3.74;76.77
60817;BME280;51921;51.518;-3.188;2023-04-26T00:42:07;101451.74;;;3.78;74.22
60817;BME280;51921;51.518;-3.188;2023-04-26T00:44:32;101454.94;;;3.07;77.14
60817;BME280;51921;51.518;-3.188;2023-04-26T00:46:58;101459.32;;;3.21;78.77
60817;BME280;51921;51.518;-3.188;2023-04-26T00:49:24;101461.45;;;4.39;74.42
60817;BME280;51921;51.518;-3.188;2023-04-26T00:51:50;101467.20;;;3.32;77.55
60817;BME280;51921;51.518;-3.188;2023-04-26T00:54:15;101463.10;;;3.32;77.49
60817;BME280;51921;51.518;-3.188;2023-04-26T00:56:41;101462.26;;;3.13;81.19
60817;BME280;51921;51.518;-3.188;2023-04-26T00:59:06;101455.73;;;2.58;85.24
60817;BME280;51921;51.518;-3.188;2023-04-26T01:01:31;101458.08;;;2.66;86.02
60817;BME280;51921;51.518;-3.188;2023-04-26T01:03:57;101458.97;;;2.97;86.65
60817;BME280;51921;51.518;-3.188;2023-04-26T01:06:23;101460.97;;;2.71;87.09
60817;BME280;51921;51.518;-3.188;2023-04-26T01:08:50;101456.63;;;2.61;88.69
60817;BME280;51921;51.518;-3.188;2023-04-26T01:11:14;101454.25;;;1.90;92.78
60817;BME280;51921;51.518;-3.188;2023-04-26T01:13:41;101453.26;;;2.03;93.76
60817;BME280;51921;51.518;-3.188;2023-04-26T01:16:07;101454.02;;;2.27;93.94
60817;BME280;51921;51.518;-3.188;2023-04-26T01:18:31;101451.84;;;2.31;93.85
60817;BME280;51921;51.518;-3.188;2023-04-26T01:20:56;101451.40;;;2.54;94.17
60817;BME280;51921;51.518;-3.188;2023-04-26T01:23:22;101451.28;;;2.72;94.12
60817;BME280;51921;51.518;-3.188;2023-04-26T01:25:47;101457.79;;;2.46;91.66
60817;BME280;51921;51.518;-3.188;2023-04-26T01:28:13;101455.99;;;2.23;93.96
60817;BME280;51921;51.518;-3.188;2023-04-26T01:30:39;101452.69;;;2.77;93.48
60817;BME280;51921;51.518;-3.188;2023-04-26T01:33:04;101450.72;;;3.06;89.23
60817;BME280;51921;51.518;-3.188;2023-04-26T01:35:30;101444.27;;;2.50;89.88
60817;BME280;51921;51.518;-3.188;2023-04-26T01:37:55;101440.03;;;2.40;94.12
60817;BME280;51921;51.518;-3.188;2023-04-26T01:40:21;101440.74;;;2.45;94.74
60817;BME280;51921;51.518;-3.188;2023-04-26T01:42:47;101441.49;;;2.37;94.03
60817;BME280;51921;51.518;-3.188;2023-04-26T01:45:12;101439.52;;;2.94;89.10
60817;BME280;51921;51.518;-3.188;2023-04-26T01:47:38;101439.41;;;3.00;91.07
60817;BME280;51921;51.518;-3.188;2023-04-26T01:50:05;101439.37;;;1.95;92.18
60817;BME280;51921;51.518;-3.188;2023-04-26T01:52:29;101439.92;;;2.16;97.18
60817;BME280;51921;51.518;-3.188;2023-04-26T01:54:55;101444.52;;;1.98;98.49
60817;BME280;51921;51.518;-3.188;2023-04-26T01:57:20;101445.90;;;1.91;99.47
60817;BME280;51921;51.518;-3.188;2023-04-26T01:59:46;101445.87;;;2.24;97.05
60817;BME280;51921;51.518;-3.188;2023-04-26T02:02:12;101445.94;;;2.74;94.13
60817;BME280;51921;51.518;-3.188;2023-04-26T02:04:37;101443.71;;;2.55;95.11
60817;BME280;51921;51.518;-3.188;2023-04-26T02:07:03;101439.27;;;3.35;90.84
60817;BME280;51921;51.518;-3.188;2023-04-26T02:09:28;101443.00;;;3.09;89.90
60817;BME280;51921;51.518;-3.188;2023-04-26T02:11:54;101437.42;;;3.15;88.94
60817;BME280;51921;51.518;-3.188;2023-04-26T02:14:20;101439.50;;;2.94;88.89
60817;BME280;51921;51.518;-3.188;2023-04-26T02:16:45;101436.18;;;3.59;88.59
60817;BME280;51921;51.518;-3.188;2023-04-26T02:19:11;101429.52;;;2.89;89.10
60817;BME280;51921;51.518;-3.188;2023-04-26T02:21:50;101425.88;;;3.05;91.40
60817;BME280;51921;51.518;-3.188;2023-04-26T02:24:02;101419.99;;;2.46;90.73
60817;BME280;51921;51.518;-3.188;2023-04-26T02:26:27;101415.33;;;2.62;93.42
60817;BME280;51921;51.518;-3.188;2023-04-26T02:28:53;101413.83;;;3.05;88.16
60817;BME280;51921;51.518;-3.188;2023-04-26T02:31:19;101416.80;;;3.29;89.13
60817;BME280;51921;51.518;-3.188;2023-04-26T02:33:44;101417.77;;;2.94;90.65
60817;BME280;51921;51.518;-3.188;2023-04-26T02:36:10;101414.37;;;2.85;90.82
60817;BME280;51921;51.518;-3.188;2023-04-26T02:38:36;101411.70;;;2.46;92.27
60817;BME280;51921;51.518;-3.188;2023-04-26T02:41:02;101405.32;;;2.24;95.72
60817;BME280;51921;51.518;-3.188;2023-04-26T02:43:27;101398.85;;;1.99;99.91
60817;BME280;51921;51.518;-3.188;2023-04-26T02:45:52;101394.75;;;2.31;99.49
60817;BME280;51921;51.518;-3.188;2023-04-26T02:48:18;101393.49;;;2.12;99.52
60817;BME280;51921;51.518;-3.188;2023-04-26T02:50:44;101386.41;;;1.91;100.00
60817;BME280;51921;51.518;-3.188;2023-04-26T02:53:09;101382.74;;;1.77;100.00
60817;BME280;51921;51.518;-3.188;2023-04-26T02:55:36;101381.69;;;2.38;100.00
60817;BME280;51921;51.518;-3.188;2023-04-26T02:58:00;101382.70;;;2.43;99.07
60817;BME280;51921;51.518;-3.188;2023-04-26T03:00:26;101381.37;;;2.07;97.79
60817;BME280;51921;51.518;-3.188;2023-04-26T03:02:51;101380.76;;;2.23;99.72
60817;BME280;51921;51.518;-3.188;2023-04-26T03:05:17;101379.85;;;2.66;97.00
60817;BME280;51921;51.518;-3.188;2023-04-26T03:07:42;101377.46;;;2.65;97.84
60817;BME280;51921;51.518;-3.188;2023-04-26T03:10:09;101374.35;;;2.37;98.79
60817;BME280;51921;51.518;-3.188;2023-04-26T03:12:33;101374.44;;;2.31;99.11
60817;BME280;51921;51.518;-3.188;2023-04-26T03:14:59;101371.21;;;2.49;96.54
60817;BME280;51921;51.518;-3.188;2023-04-26T03:17:24;101364.45;;;2.29;99.81
60817;BME280;51921;51.518;-3.188;2023-04-26T03:19:50;101364.63;;;1.83;100.00
60817;BME280;51921;51.518;-3.188;2023-04-26T03:22:16;101361.59;;;2.28;99.88
60817;BME280;51921;51.518;-3.188;2023-04-26T03:24:41;101364.59;;;2.40;97.64
60817;BME280;51921;51.518;-3.188;2023-04-26T03:27:07;101363.91;;;2.29;100.00
60817;BME280;51921;51.518;-3.188;2023-04-26T03:29:33;101365.95;;;2.15;99.23
60817;BME280;51921;51.518;-3.188;2023-04-26T03:31:58;101365.06;;;1.99;100.00
60817;BME280;51921;51.518;-3.188;2023-04-26T03:34:24;101363.27;;;2.27;99.14
60817;BME280;51921;51.518;-3.188;2023-04-26T03:36:50;101362.01;;;1.74;100.00
60817;BME280;51921;51.518;-3.188;2023-04-26T03:39:15;101358.05;;;2.67;100.00
60817;BME280;51921;51.518;-3.188;2023-04-26T03:41:41;101355.96;;;2.05;100.00
60817;BME280;51921;51.518;-3.188;2023-04-26T03:44:06;101354.65;;;1.74;100.00
60817;BME280;51921;51.518;-3.188;2023-04-26T03:46:32;101353.82;;;1.87;100.00
60817;BME280;51921;51.518;-3.188;2023-04-26T03:48:58;101350.81;;;1.80;100.00
60817;BME280;51921;51.518;-3.188;2023-04-26T03:51:23;101344.59;;;2.02;100.00
60817;BME280;51921;51.518;-3.188;2023-04-26T03:53:49;101344.31;;;1.79;100.00
60817;BME280;51921;51.518;-3.188;2023-04-26T03:56:14;101343.26;;;1.75;100.00
60817;BME280;51921;51.518;-3.188;2023-04-26T03:58:39;101341.77;;;1.53;100.00
60817;BME280;51921;51.518;-3.188;2023-04-26T04:01:05;101342.48;;;1.55;100.00
60817;BME280;51921;51.518;-3.188;2023-04-26T04:03:31;101343.28;;;1.58;100.00
60817;BME280;51921;51.518;-3.188;2023-04-26T04:05:56;101336.30;;;1.47;100.00
60817;BME280;51921;51.518;-3.188;2023-04-26T04:08:22;101334.58;;;1.27;100.00
60817;BME280;51921;51.518;-3.188;2023-04-26T04:10:48;101332.17;;;1.71;100.00
60817;BME280;51921;51.518;-3.188;2023-04-26T04:13:13;101330.00;;;1.35;100.00
60817;BME280;51921;51.518;-3.188;2023-04-26T04:15:38;101325.69;;;1.77;100.00
60817;BME280;51921;51.518;-3.188;2023-04-26T04:18:04;101320.05;;;1.76;100.00
60817;BME280;51921;51.518;-3.188;2023-04-26T04:20:30;101319.51;;;1.86;100.00
60817;BME280;51921;51.518;-3.188;2023-04-26T04:22:55;101318.08;;;1.30;100.00
60817;BME280;51921;51.518;-3.188;2023-04-26T04:25:21;101313.27;;;1.64;100.00
60817;BME280;51921;51.518;-3.188;2023-04-26T04:27:47;101317.24;;;2.49;100.00
60817;BME280;51921;51.518;-3.188;2023-04-26T04:30:12;101316.68;;;1.78;100.00
60817;BME280;51921;51.518;-3.188;2023-04-26T04:32:37;101319.78;;;1.39;100.00
60817;BME280;51921;51.518;-3.188;2023-04-26T04:35:03;101322.54;;;2.09;100.00
60817;BME280;51921;51.518;-3.188;2023-04-26T04:37:29;101325.33;;;1.91;100.00
60817;BME280;51921;51.518;-3.188;2023-04-26T04:39:55;101323.45;;;1.63;100.00
60817;BME280;51921;51.518;-3.188;2023-04-26T04:42:20;101325.14;;;1.48;100.00
60817;BME280;51921;51.518;-3.188;2023-04-26T04:44:46;101323.59;;;1.53;100.00
60817;BME280;51921;51.518;-3.188;2023-04-26T04:47:11;101321.47;;;1.78;100.00
60817;BME280;51921;51.518;-3.188;2023-04-26T04:49:37;101320.81;;;1.91;100.00
60817;BME280;51921;51.518;-3.188;2023-04-26T04:52:03;101320.18;;;1.43;100.00
60817;BME280;51921;51.518;-3.188;2023-04-26T04:54:28;101321.96;;;2.17;100.00
60817;BME280;51921;51.518;-3.188;2023-04-26T04:56:54;101323.00;;;1.73;100.00
60817;BME280;51921;51.518;-3.188;2023-04-26T04:59:20;101329.71;;;1.25;100.00
60817;BME280;51921;51.518;-3.188;2023-04-26T05:01:45;101331.44;;;1.63;100.00
60817;BME280;51921;51.518;-3.188;2023-04-26T05:04:11;101328.93;;;1.70;100.00
60817;BME280;51921;51.518;-3.188;2023-04-26T05:06:37;101331.59;;;1.45;100.00
60817;BME280;51921;51.518;-3.188;2023-04-26T05:09:02;101329.63;;;1.40;100.00
60817;BME280;51921;51.518;-3.188;2023-04-26T05:11:27;101329.40;;;0.96;100.00
60817;BME280;51921;51.518;-3.188;2023-04-26T05:13:53;101327.88;;;1.23;100.00
60817;BME280;51921;51.518;-3.188;2023-04-26T05:16:19;101324.61;;;1.41;100.00
60817;BME280;51921;51.518;-3.188;2023-04-26T05:18:45;101325.81;;;0.95;100.00
60817;BME280;51921;51.518;-3.188;2023-04-26T05:21:10;101324.52;;;1.33;100.00
60817;BME280;51921;51.518;-3.188;2023-04-26T05:23:36;101323.34;;;1.07;100.00
60817;BME280;51921;51.518;-3.188;2023-04-26T05:26:02;101323.42;;;1.47;100.00
60817;BME280;51921;51.518;-3.188;2023-04-26T05:28:27;101327.14;;;1.03;100.00
60817;BME280;51921;51.518;-3.188;2023-04-26T05:30:52;101326.77;;;1.00;100.00
60817;BME280;51921;51.518;-3.188;2023-04-26T05:33:18;101326.28;;;0.93;100.00
60817;BME280;51921;51.518;-3.188;2023-04-26T05:35:44;101331.71;;;0.75;100.00
60817;BME280;51921;51.518;-3.188;2023-04-26T05:38:10;101324.56;;;1.27;100.00
60817;BME280;51921;51.518;-3.188;2023-04-26T05:40:35;101321.31;;;0.94;100.00
60817;BME280;51921;51.518;-3.188;2023-04-26T05:43:00;101319.41;;;1.28;100.00
60817;BME280;51921;51.518;-3.188;2023-04-26T05:45:26;101325.41;;;1.65;100.00
60817;BME280;51921;51.518;-3.188;2023-04-26T05:47:51;101322.76;;;1.42;100.00
60817;BME280;51921;51.518;-3.188;2023-04-26T05:50:17;101321.02;;;1.53;100.00
60817;BME280;51921;51.518;-3.188;2023-04-26T05:52:43;101321.88;;;1.26;100.00
60817;BME280;51921;51.518;-3.188;2023-04-26T05:55:09;101311.67;;;1.68;100.00
60817;BME280;51921;51.518;-3.188;2023-04-26T05:57:34;101310.02;;;1.64;100.00
60817;BME280;51921;51.518;-3.188;2023-04-26T05:59:59;101306.27;;;1.73;100.00
60817;BME280;51921;51.518;-3.188;2023-04-26T06:02:25;101310.72;;;1.52;100.00
60817;BME280;51921;51.518;-3.188;2023-04-26T06:04:50;101309.58;;;1.66;100.00
60817;BME280;51921;51.518;-3.188;2023-04-26T06:07:16;101304.48;;;1.71;100.00
60817;BME280;51921;51.518;-3.188;2023-04-26T06:09:42;101302.90;;;1.74;100.00
60817;BME280;51921;51.518;-3.188;2023-04-26T06:12:08;101304.79;;;1.91;100.00
60817;BME280;51921;51.518;-3.188;2023-04-26T06:14:33;101312.25;;;1.69;100.00
60817;BME280;51921;51.518;-3.188;2023-04-26T06:16:59;101322.04;;;1.74;100.00
60817;BME280;51921;51.518;-3.188;2023-04-26T06:19:24;101322.90;;;2.25;100.00
60817;BME280;51921;51.518;-3.188;2023-04-26T06:21:50;101324.91;;;2.00;100.00
60817;BME280;51921;51.518;-3.188;2023-04-26T06:24:15;101329.22;;;1.83;100.00
60817;BME280;51921;51.518;-3.188;2023-04-26T06:26:41;101329.13;;;2.16;100.00
60817;BME280;51921;51.518;-3.188;2023-04-26T06:29:07;101327.80;;;2.48;100.00
60817;BME280;51921;51.518;-3.188;2023-04-26T06:31:32;101331.24;;;2.58;100.00
60817;BME280;51921;51.518;-3.188;2023-04-26T06:33:58;101332.33;;;2.24;100.00
60817;BME280;51921;51.518;-3.188;2023-04-26T06:36:24;101342.50;;;1.43;100.00
60817;BME280;51921;51.518;-3.188;2023-04-26T06:38:49;101338.83;;;1.88;100.00
60817;BME280;51921;51.518;-3.188;2023-04-26T06:41:15;101343.67;;;1.72;100.00
60817;BME280;51921;51.518;-3.188;2023-04-26T06:43:40;101346.91;;;1.80;100.00
60817;BME280;51921;51.518;-3.188;2023-04-26T06:46:06;101346.08;;;1.74;100.00
60817;BME280;51921;51.518;-3.188;2023-04-26T06:48:31;101346.86;;;1.85;100.00
60817;BME280;51921;51.518;-3.188;2023-04-26T06:50:57;101354.01;;;1.89;100.00
60817;BME280;51921;51.518;-3.188;2023-04-26T06:53:22;101344.18;;;1.95;100.00
60817;BME280;51921;51.518;-3.188;2023-04-26T06:55:48;101347.65;;;2.16;100.00
60817;BME280;51921;51.518;-3.188;2023-04-26T06:58:14;101352.32;;;1.89;100.00
60817;BME280;51921;51.518;-3.188;2023-04-26T07:00:39;101345.89;;;2.15;100.00
60817;BME280;51921;51.518;-3.188;2023-04-26T07:03:05;101346.19;;;2.69;100.00
60817;BME280;51921;51.518;-3.188;2023-04-26T07:05:31;101341.68;;;2.71;100.00
60817;BME280;51921;51.518;-3.188;2023-04-26T07:07:56;101343.21;;;2.45;100.00
60817;BME280;51921;51.518;-3.188;2023-04-26T07:10:22;101343.00;;;2.30;100.00
60817;BME280;51921;51.518;-3.188;2023-04-26T07:12:47;101348.08;;;2.14;100.00
60817;BME280;51921;51.518;-3.188;2023-04-26T07:15:13;101348.93;;;2.43;100.00
60817;BME280;51921;51.518;-3.188;2023-04-26T07:17:39;101346.22;;;2.70;100.00
60817;BME280;51921;51.518;-3.188;2023-04-26T07:20:05;101350.65;;;2.44;100.00
60817;BME280;51921;51.518;-3.188;2023-04-26T07:22:30;101348.41;;;2.81;100.00
60817;BME280;51921;51.518;-3.188;2023-04-26T07:24:55;101348.88;;;3.03;100.00
60817;BME280;51921;51.518;-3.188;2023-04-26T07:27:21;101354.06;;;2.59;100.00
60817;BME280;51921;51.518;-3.188;2023-04-26T07:29:46;101348.95;;;2.53;100.00
60817;BME280;51921;51.518;-3.188;2023-04-26T07:32:12;101344.42;;;2.38;100.00
60817;BME280;51921;51.518;-3.188;2023-04-26T07:34:38;101345.26;;;2.62;100.00
60817;BME280;51921;51.518;-3.188;2023-04-26T07:37:03;101346.70;;;3.33;100.00
60817;BME280;51921;51.518;-3.188;2023-04-26T07:39:29;101342.77;;;2.94;100.00
60817;BME280;51921;51.518;-3.188;2023-04-26T07:41:54;101341.04;;;3.26;100.00
60817;BME280;51921;51.518;-3.188;2023-04-26T07:44:20;101334.66;;;3.49;100.00
60817;BME280;51921;51.518;-3.188;2023-04-26T07:46:45;101333.31;;;2.95;100.00
60817;BME280;51921;51.518;-3.188;2023-04-26T07:49:11;101329.29;;;3.22;100.00
60817;BME280;51921;51.518;-3.188;2023-04-26T07:51:36;101327.94;;;2.94;100.00
60817;BME280;51921;51.518;-3.188;2023-04-26T07:54:02;101331.92;;;3.16;100.00
60817;BME280;51921;51.518;-3.188;2023-04-26T07:56:27;101331.58;;;3.11;100.00
60817;BME280;51921;51.518;-3.188;2023-04-26T07:58:53;101336.05;;;3.01;100.00
60817;BME280;51921;51.518;-3.188;2023-04-26T08:01:19;101337.27;;;3.61;100.00
60817;BME280;51921;51.518;-3.188;2023-04-26T08:03:44;101339.99;;;3.80;100.00
60817;BME280;51921;51.518;-3.188;2023-04-26T08:06:10;101338.64;;;3.33;100.00
60817;BME280;51921;51.518;-3.188;2023-04-26T08:08:35;101334.69;;;3.71;100.00
60817;BME280;51921;51.518;-3.188;2023-04-26T08:11:01;101334.92;;;3.69;100.00
60817;BME280;51921;51.518;-3.188;2023-04-26T08:13:27;101340.77;;;3.10;100.00
60817;BME280;51921;51.518;-3.188;2023-04-26T08:15:52;101337.37;;;3.10;100.00
60817;BME280;51921;51.518;-3.188;2023-04-26T08:18:18;101334.85;;;3.94;100.00
60817;BME280;51921;51.518;-3.188;2023-04-26T08:20:44;101339.23;;;3.70;100.00
60817;BME280;51921;51.518;-3.188;2023-04-26T08:23:09;101346.50;;;3.37;100.00
60817;BME280;51921;51.518;-3.188;2023-04-26T08:25:35;101347.08;;;4.03;100.00
60817;BME280;51921;51.518;-3.188;2023-04-26T08:28:00;101348.99;;;3.24;100.00
60817;BME280;51921;51.518;-3.188;2023-04-26T08:30:25;101345.33;;;3.64;100.00
60817;BME280;51921;51.518;-3.188;2023-04-26T08:32:51;101340.92;;;4.27;100.00
60817;BME280;51921;51.518;-3.188;2023-04-26T08:35:17;101346.09;;;3.87;100.00
60817;BME280;51921;51.518;-3.188;2023-04-26T08:37:42;101344.40;;;3.82;100.00
60817;BME280;51921;51.518;-3.188;2023-04-26T08:40:08;101345.82;;;3.33;100.00
60817;BME280;51921;51.518;-3.188;2023-04-26T08:42:38;101340.75;;;4.04;100.00
60817;BME280;51921;51.518;-3.188;2023-04-26T08:45:00;101340.21;;;3.76;100.00
60817;BME280;51921;51.518;-3.188;2023-04-26T08:47:28;101335.14;;;4.37;100.00
60817;BME280;51921;51.518;-3.188;2023-04-26T08:49:53;101340.57;;;3.95;100.00
60817;BME280;51921;51.518;-3.188;2023-04-26T08:52:16;101342.83;;;3.66;100.00
60817;BME280;51921;51.518;-3.188;2023-04-26T08:54:42;101341.77;;;3.97;100.00
60817;BME280;51921;51.518;-3.188;2023-04-26T08:57:07;101336.04;;;4.31;100.00
60817;BME280;51921;51.518;-3.188;2023-04-26T08:59:33;101336.37;;;3.89;100.00
60817;BME280;51921;51.518;-3.188;2023-04-26T09:01:58;101342.04;;;5.21;100.00
60817;BME280;51921;51.518;-3.188;2023-04-26T09:04:23;101330.47;;;5.62;100.00
60817;BME280;51921;51.518;-3.188;2023-04-26T09:06:49;101332.73;;;3.98;100.00
60817;BME280;51921;51.518;-3.188;2023-04-26T09:09:17;101343.51;;;4.06;100.00
60817;BME280;51921;51.518;-3.188;2023-04-26T09:11:53;101343.62;;;3.51;100.00
60817;BME280;51921;51.518;-3.188;2023-04-26T09:14:05;101339.03;;;4.27;100.00
60817;BME280;51921;51.518;-3.188;2023-04-26T09:16:34;101343.52;;;4.02;100.00
60817;BME280;51921;51.518;-3.188;2023-04-26T09:18:56;101340.61;;;3.96;100.00
60817;BME280;51921;51.518;-3.188;2023-04-26T09:21:22;101332.55;;;4.30;100.00
60817;BME280;51921;51.518;-3.188;2023-04-26T09:23:55;101338.07;;;3.55;100.00
60817;BME280;51921;51.518;-3.188;2023-04-26T09:26:17;101330.39;;;3.91;100.00
60817;BME280;51921;51.518;-3.188;2023-04-26T09:28:38;101331.58;;;3.97;100.00
60817;BME280;51921;51.518;-3.188;2023-04-26T09:31:04;101332.08;;;4.41;100.00
60817;BME280;51921;51.518;-3.188;2023-04-26T09:33:29;101333.06;;;4.33;100.00
60817;BME280;51921;51.518;-3.188;2023-04-26T09:35:57;101331.54;;;3.95;100.00
60817;BME280;51921;51.518;-3.188;2023-04-26T09:38:21;101327.37;;;4.24;100.00
60817;BME280;51921;51.518;-3.188;2023-04-26T09:40:47;101333.96;;;4.59;100.00
60817;BME280;51921;51.518;-3.188;2023-04-26T09:43:13;101337.02;;;4.92;100.00
60817;BME280;51921;51.518;-3.188;2023-04-26T09:45:45;101336.81;;;5.15;100.00
60817;BME280;51921;51.518;-3.188;2023-04-26T09:48:14;101333.79;;;4.33;100.00
60817;BME280;51921;51.518;-3.188;2023-04-26T09:50:30;101329.70;;;4.38;100.00
60817;BME280;51921;51.518;-3.188;2023-04-26T09:52:55;101331.64;;;5.06;100.00
60817;BME280;51921;51.518;-3.188;2023-04-26T09:55:25;101331.93;;;4.74;100.00
60817;BME280;51921;51.518;-3.188;2023-04-26T09:57:46;101327.29;;;4.55;100.00
60817;BME280;51921;51.518;-3.188;2023-04-26T10:00:12;101325.10;;;4.35;100.00
60817;BME280;51921;51.518;-3.188;2023-04-26T10:02:37;101326.53;;;5.46;100.00
60817;BME280;51921;51.518;-3.188;2023-04-26T10:05:03;101325.33;;;5.34;100.00
60817;BME280;51921;51.518;-3.188;2023-04-26T10:07:29;101329.26;;;4.91;100.00
60817;BME280;51921;51.518;-3.188;2023-04-26T10:09:54;101333.24;;;5.09;100.00
60817;BME280;51921;51.518;-3.188;2023-04-26T10:12:19;101325.38;;;5.01;100.00
60817;BME280;51921;51.518;-3.188;2023-04-26T10:14:45;101335.02;;;5.24;100.00
60817;BME280;51921;51.518;-3.188;2023-04-26T10:17:09;101323.88;;;5.16;100.00
60817;BME280;51921;51.518;-3.188;2023-04-26T10:19:36;101324.06;;;6.43;100.00
60817;BME280;51921;51.518;-3.188;2023-04-26T10:22:04;101321.51;;;5.77;100.00
60817;BME280;51921;51.518;-3.188;2023-04-26T10:24:26;101316.81;;;6.02;100.00
60817;BME280;51921;51.518;-3.188;2023-04-26T10:26:53;101306.98;;;6.62;96.95
60817;BME280;51921;51.518;-3.188;2023-04-26T10:29:17;101308.81;;;7.20;97.78
60817;BME280;51921;51.518;-3.188;2023-04-26T10:34:18;101306.70;;;6.79;96.94
60817;BME280;51921;51.518;-3.188;2023-04-26T10:39:17;101303.74;;;8.30;86.95
60817;BME280;51921;51.518;-3.188;2023-04-26T10:41:29;101306.71;;;6.65;93.40
60817;BME280;51921;51.518;-3.188;2023-04-26T10:43:50;101306.03;;;9.13;79.29
60817;BME280;51921;51.518;-3.188;2023-04-26T10:48:41;101300.87;;;6.80;91.89
60817;BME280;51921;51.518;-3.188;2023-04-26T10:51:07;101300.16;;;6.95;91.58
60817;BME280;51921;51.518;-3.188;2023-04-26T10:53:33;101294.40;;;7.81;88.54
60817;BME280;51921;51.518;-3.188;2023-04-26T10:55:58;101294.12;;;6.76;94.01
60817;BME280;51921;51.518;-3.188;2023-04-26T10:58:25;101293.27;;;8.67;88.56
60817;BME280;51921;51.518;-3.188;2023-04-26T11:03:14;101296.93;;;9.45;78.71
60817;BME280;51921;51.518;-3.188;2023-04-26T11:05:47;101291.78;;;8.05;80.76
60817;BME280;51921;51.518;-3.188;2023-04-26T11:08:06;101287.65;;;7.51;90.00
60817;BME280;51921;51.518;-3.188;2023-04-26T11:10:30;101288.00;;;6.52;92.89
60817;BME280;51921;51.518;-3.188;2023-04-26T11:13:00;101285.48;;;6.25;96.91
60817;BME280;51921;51.518;-3.188;2023-04-26T11:15:23;101280.67;;;5.99;97.23
60817;BME280;51921;51.518;-3.188;2023-04-26T11:17:47;101282.94;;;6.66;98.66
60817;BME280;51921;51.518;-3.188;2023-04-26T11:20:15;101279.94;;;7.21;95.48
60817;BME280;51921;51.518;-3.188;2023-04-26T11:22:39;101281.51;;;6.54;100.00
60817;BME280;51921;51.518;-3.188;2023-04-26T11:25:03;101274.95;;;5.97;100.00
60817;BME280;51921;51.518;-3.188;2023-04-26T11:27:28;101277.92;;;7.10;99.25
60817;BME280;51921;51.518;-3.188;2023-04-26T11:29:53;101276.09;;;6.82;98.86
60817;BME280;51921;51.518;-3.188;2023-04-26T11:32:19;101276.85;;;6.86;98.34
60817;BME280;51921;51.518;-3.188;2023-04-26T11:34:45;101279.06;;;6.13;100.00
60817;BME280;51921;51.518;-3.188;2023-04-26T11:37:10;101287.88;;;5.99;100.00
60817;BME280;51921;51.518;-3.188;2023-04-26T11:39:36;101285.88;;;7.11;95.66
60817;BME280;51921;51.518;-3.188;2023-04-26T11:42:04;101284.00;;;7.50;92.17
60817;BME280;51921;51.518;-3.188;2023-04-26T11:44:27;101283.07;;;6.91;95.35
60817;BME280;51921;51.518;-3.188;2023-04-26T11:46:53;101285.48;;;6.61;98.79
60817;BME280;51921;51.518;-3.188;2023-04-26T11:49:18;101275.73;;;6.55;100.00
60817;BME280;51921;51.518;-3.188;2023-04-26T11:51:45;101273.78;;;6.50;97.13
60817;BME280;51921;51.518;-3.188;2023-04-26T11:54:09;101268.57;;;6.88;100.00
60817;BME280;51921;51.518;-3.188;2023-04-26T11:56:35;101270.33;;;6.97;100.00
60817;BME280;51921;51.518;-3.188;2023-04-26T11:59:00;101272.37;;;8.68;87.17
60817;BME280;51921;51.518;-3.188;2023-04-26T12:01:26;101276.27;;;8.28;88.39
60817;BME280;51921;51.518;-3.188;2023-04-26T12:03:52;101275.80;;;7.66;88.53
60817;BME280;51921;51.518;-3.188;2023-04-26T12:06:16;101274.42;;;8.12;87.02
60817;BME280;51921;51.518;-3.188;2023-04-26T12:08:48;101280.29;;;5.87;99.94
60817;BME280;51921;51.518;-3.188;2023-04-26T12:11:07;101279.81;;;6.91;99.21
60817;BME280;51921;51.518;-3.188;2023-04-26T12:13:32;101276.34;;;7.29;94.82
60817;BME280;51921;51.518;-3.188;2023-04-26T12:15:58;101276.26;;;7.08;97.80
60817;BME280;51921;51.518;-3.188;2023-04-26T12:18:29;101272.22;;;7.60;96.90
60817;BME280;51921;51.518;-3.188;2023-04-26T12:20:48;101270.21;;;7.76;93.36
60817;BME280;51921;51.518;-3.188;2023-04-26T12:23:15;101267.95;;;7.85;93.73
60817;BME280;51921;51.518;-3.188;2023-04-26T12:25:41;101263.74;;;9.82;83.34
60817;BME280;51921;51.518;-3.188;2023-04-26T12:28:08;101259.46;;;10.98;74.99
60817;BME280;51921;51.518;-3.188;2023-04-26T12:30:31;101261.27;;;12.25;68.90
60817;BME280;51921;51.518;-3.188;2023-04-26T12:32:56;101264.89;;;9.75;71.35
60817;BME280;51921;51.518;-3.188;2023-04-26T12:35:22;101265.18;;;7.04;91.62
60817;BME280;51921;51.518;-3.188;2023-04-26T12:37:46;101266.07;;;7.57;89.62
60817;BME280;51921;51.518;-3.188;2023-04-26T12:40:12;101265.14;;;7.24;92.55
60817;BME280;51921;51.518;-3.188;2023-04-26T12:42:37;101265.95;;;7.74;92.62